sensor_id;sensor_type;location;lat;lon;timestamp;P1;durP1;ratioP1;P2;durP2;ratioP2
58412;SDS011;44209;52.952;6.790;2023-01-19T00:00:08;14.83;;;11.80;;
58412;SDS011;44209;52.952;6.790;2023-01-19T00:02:39;12.77;;;11.20;;
58412;SDS011;44209;52.952;6.790;2023-01-19T00:05:07;14.40;;;10.87;;
58412;SDS011;44209;52.952;6.790;2023-01-19T00:07:33;14.53;;;11.60;;
58412;SDS011;44209;52.952;6.790;2023-01-19T00:09:59;13.83;;;10.87;;
58412;SDS011;44209;52.952;6.790;2023-01-19T00:12:25;14.33;;;10.60;;
58412;SDS011;44209;52.952;6.790;2023-01-19T00:14:51;12.10;;;10.30;;
58412;SDS011;44209;52.952;6.790;2023-01-19T00:17:16;13.87;;;10.87;;
58412;SDS011;44209;52.952;6.790;2023-01-19T00:19:42;12.50;;;10.30;;
58412;SDS011;44209;52.952;6.790;2023-01-19T00:22:08;13.27;;;10.63;;
58412;SDS011;44209;52.952;6.790;2023-01-19T00:24:34;13.83;;;10.40;;
58412;SDS011;44209;52.952;6.790;2023-01-19T00:26:59;12.13;;;9.57;;
58412;SDS011;44209;52.952;6.790;2023-01-19T00:29:28;12.63;;;10.07;;
58412;SDS011;44209;52.952;6.790;2023-01-19T00:32:01;13.10;;;9.83;;
58412;SDS011;44209;52.952;6.790;2023-01-19T00:34:28;10.57;;;8.70;;
58412;SDS011;44209;52.952;6.790;2023-01-19T00:37:01;10.20;;;8.13;;
58412;SDS011;44209;52.952;6.790;2023-01-19T00:39:28;10.23;;;7.67;;
58412;SDS011;44209;52.952;6.790;2023-01-19T00:41:54;10.03;;;7.70;;
58412;SDS011;44209;52.952;6.790;2023-01-19T00:44:38;8.03;;;6.90;;
58412;SDS011;44209;52.952;6.790;2023-01-19T00:47:04;7.83;;;6.30;;
58412;SDS011;44209;52.952;6.790;2023-01-19T00:49:30;6.53;;;5.53;;
58412;SDS011;44209;52.952;6.790;2023-01-19T00:51:56;5.90;;;5.30;;
58412;SDS011;44209;52.952;6.790;2023-01-19T00:54:21;5.40;;;4.90;;
58412;SDS011;44209;52.952;6.790;2023-01-19T00:56:47;5.53;;;5.03;;
58412;SDS011;44209;52.952;6.790;2023-01-19T00:59:13;5.37;;;4.80;;
58412;SDS011;44209;52.952;6.790;2023-01-19T01:01:38;5.67;;;5.17;;
58412;SDS011;44209;52.952;6.790;2023-01-19T01:04:04;6.10;;;5.47;;
58412;SDS011;44209;52.952;6.790;2023-01-19T01:06:30;5.67;;;5.07;;
58412;SDS011;44209;52.952;6.790;2023-01-19T01:08:56;6.87;;;5.30;;
58412;SDS011;44209;52.952;6.790;2023-01-19T01:11:21;5.73;;;5.17;;
58412;SDS011;44209;52.952;6.790;2023-01-19T01:13:47;5.37;;;4.90;;
58412;SDS011;44209;52.952;6.790;2023-01-19T01:16:14;5.27;;;4.77;;
58412;SDS011;44209;52.952;6.790;2023-01-19T01:18:40;5.30;;;4.70;;
58412;SDS011;44209;52.952;6.790;2023-01-19T01:21:06;4.77;;;4.20;;
58412;SDS011;44209;52.952;6.790;2023-01-19T01:23:33;4.80;;;4.30;;
58412;SDS011;44209;52.952;6.790;2023-01-19T01:25:59;5.67;;;4.47;;
58412;SDS011;44209;52.952;6.790;2023-01-19T01:28:25;4.23;;;3.83;;
58412;SDS011;44209;52.952;6.790;2023-01-19T01:30:54;4.70;;;4.20;;
58412;SDS011;44209;52.952;6.790;2023-01-19T01:33:21;4.90;;;4.40;;
58412;SDS011;44209;52.952;6.790;2023-01-19T01:35:47;4.97;;;4.20;;
58412;SDS011;44209;52.952;6.790;2023-01-19T01:38:14;4.60;;;4.20;;
58412;SDS011;44209;52.952;6.790;2023-01-19T01:40:40;6.90;;;4.87;;
58412;SDS011;44209;52.952;6.790;2023-01-19T01:43:10;6.77;;;5.40;;
58412;SDS011;44209;52.952;6.790;2023-01-19T01:45:38;6.97;;;5.60;;
58412;SDS011;44209;52.952;6.790;2023-01-19T01:50:43;7.35;;;6.18;;
58412;SDS011;44209;52.952;6.790;2023-01-19T01:53:32;7.60;;;6.80;;
58412;SDS011;44209;52.952;6.790;2023-01-19T01:56:00;9.80;;;8.13;;
58412;SDS011;44209;52.952;6.790;2023-01-19T01:58:30;9.13;;;8.07;;
58412;SDS011;44209;52.952;6.790;2023-01-19T02:00:57;12.53;;;9.97;;
58412;SDS011;44209;52.952;6.790;2023-01-19T02:03:41;11.27;;;9.23;;
58412;SDS011;44209;52.952;6.790;2023-01-19T02:06:07;11.27;;;10.03;;
58412;SDS011;44209;52.952;6.790;2023-01-19T02:08:36;14.80;;;10.87;;
58412;SDS011;44209;52.952;6.790;2023-01-19T02:11:24;13.63;;;11.10;;
58412;SDS011;44209;52.952;6.790;2023-01-19T02:14:09;12.83;;;10.80;;
58412;SDS011;44209;52.952;6.790;2023-01-19T02:16:35;12.13;;;10.70;;
58412;SDS011;44209;52.952;6.790;2023-01-19T02:19:02;16.00;;;12.20;;
58412;SDS011;44209;52.952;6.790;2023-01-19T02:24:40;17.53;;;12.97;;
58412;SDS011;44209;52.952;6.790;2023-01-19T02:27:07;15.53;;;12.43;;
58412;SDS011;44209;52.952;6.790;2023-01-19T02:29:34;15.67;;;13.03;;
58412;SDS011;44209;52.952;6.790;2023-01-19T02:32:00;18.03;;;14.03;;
58412;SDS011;44209;52.952;6.790;2023-01-19T02:34:27;17.90;;;13.37;;
58412;SDS011;44209;52.952;6.790;2023-01-19T02:36:55;19.17;;;14.37;;
58412;SDS011;44209;52.952;6.790;2023-01-19T02:39:39;18.67;;;14.63;;
58412;SDS011;44209;52.952;6.790;2023-01-19T02:42:12;18.67;;;15.00;;
58412;SDS011;44209;52.952;6.790;2023-01-19T02:44:42;22.43;;;16.60;;
58412;SDS011;44209;52.952;6.790;2023-01-19T02:47:11;19.80;;;16.27;;
58412;SDS011;44209;52.952;6.790;2023-01-19T02:49:38;19.60;;;16.40;;
58412;SDS011;44209;52.952;6.790;2023-01-19T02:52:03;24.27;;;17.53;;
58412;SDS011;44209;52.952;6.790;2023-01-19T02:54:48;22.60;;;17.47;;
58412;SDS011;44209;52.952;6.790;2023-01-19T03:05:54;24.53;;;18.50;;
58412;SDS011;44209;52.952;6.790;2023-01-19T03:14:20;24.93;;;18.63;;
58412;SDS011;44209;52.952;6.790;2023-01-19T03:16:56;25.43;;;18.30;;
58412;SDS011;44209;52.952;6.790;2023-01-19T03:25:38;25.13;;;17.83;;
58412;SDS011;44209;52.952;6.790;2023-01-19T03:28:06;23.27;;;17.90;;
58412;SDS011;44209;52.952;6.790;2023-01-19T03:30:34;22.90;;;17.27;;
58412;SDS011;44209;52.952;6.790;2023-01-19T03:33:08;23.58;;;17.60;;
58412;SDS011;44209;52.952;6.790;2023-01-19T03:35:40;22.07;;;16.83;;
58412;SDS011;44209;52.952;6.790;2023-01-19T03:38:11;19.15;;;15.95;;
58412;SDS011;44209;52.952;6.790;2023-01-19T03:40:40;20.40;;;16.60;;
58412;SDS011;44209;52.952;6.790;2023-01-19T03:43:06;20.40;;;16.90;;
58412;SDS011;44209;52.952;6.790;2023-01-19T03:45:33;20.57;;;16.30;;
58412;SDS011;44209;52.952;6.790;2023-01-19T03:48:02;18.10;;;15.13;;
58412;SDS011;44209;52.952;6.790;2023-01-19T03:50:29;18.07;;;15.53;;
58412;SDS011;44209;52.952;6.790;2023-01-19T03:55:36;16.00;;;13.37;;
58412;SDS011;44209;52.952;6.790;2023-01-19T03:58:04;15.80;;;13.87;;
58412;SDS011;44209;52.952;6.790;2023-01-19T04:00:30;17.50;;;14.47;;
58412;SDS011;44209;52.952;6.790;2023-01-19T04:02:56;16.87;;;14.10;;
58412;SDS011;44209;52.952;6.790;2023-01-19T04:05:22;16.33;;;12.83;;
58412;SDS011;44209;52.952;6.790;2023-01-19T04:07:48;14.90;;;12.93;;
58412;SDS011;44209;52.952;6.790;2023-01-19T04:10:15;15.60;;;13.17;;
58412;SDS011;44209;52.952;6.790;2023-01-19T04:12:42;13.60;;;11.70;;
58412;SDS011;44209;52.952;6.790;2023-01-19T04:15:08;14.63;;;12.30;;
58412;SDS011;44209;52.952;6.790;2023-01-19T04:17:34;13.80;;;12.17;;
58412;SDS011;44209;52.952;6.790;2023-01-19T04:20:00;12.53;;;11.23;;
58412;SDS011;44209;52.952;6.790;2023-01-19T04:22:25;12.27;;;10.53;;
58412;SDS011;44209;52.952;6.790;2023-01-19T04:24:51;14.83;;;11.50;;
58412;SDS011;44209;52.952;6.790;2023-01-19T04:27:17;12.87;;;10.40;;
58412;SDS011;44209;52.952;6.790;2023-01-19T04:29:43;12.97;;;11.10;;
58412;SDS011;44209;52.952;6.790;2023-01-19T04:32:09;13.87;;;11.53;;
58412;SDS011;44209;52.952;6.790;2023-01-19T04:34:36;11.43;;;10.23;;
58412;SDS011;44209;52.952;6.790;2023-01-19T04:37:02;12.93;;;11.10;;
58412;SDS011;44209;52.952;6.790;2023-01-19T04:39:28;11.57;;;10.37;;
58412;SDS011;44209;52.952;6.790;2023-01-19T04:41:54;11.73;;;10.27;;
58412;SDS011;44209;52.952;6.790;2023-01-19T04:44:21;11.87;;;9.80;;
58412;SDS011;44209;52.952;6.790;2023-01-19T04:46:47;10.93;;;9.43;;
58412;SDS011;44209;52.952;6.790;2023-01-19T04:49:13;10.40;;;9.30;;
58412;SDS011;44209;52.952;6.790;2023-01-19T04:51:39;11.33;;;9.67;;
58412;SDS011;44209;52.952;6.790;2023-01-19T04:54:05;10.33;;;9.23;;
58412;SDS011;44209;52.952;6.790;2023-01-19T04:56:33;12.63;;;9.23;;
58412;SDS011;44209;52.952;6.790;2023-01-19T04:58:59;10.43;;;8.37;;
58412;SDS011;44209;52.952;6.790;2023-01-19T05:01:25;10.53;;;8.07;;
58412;SDS011;44209;52.952;6.790;2023-01-19T05:03:51;10.90;;;8.90;;
58412;SDS011;44209;52.952;6.790;2023-01-19T05:06:17;10.67;;;7.63;;
58412;SDS011;44209;52.952;6.790;2023-01-19T05:08:42;8.27;;;7.00;;
58412;SDS011;44209;52.952;6.790;2023-01-19T05:11:08;9.53;;;7.37;;
58412;SDS011;44209;52.952;6.790;2023-01-19T05:13:34;8.50;;;6.80;;
58412;SDS011;44209;52.952;6.790;2023-01-19T05:16:00;9.53;;;6.83;;
58412;SDS011;44209;52.952;6.790;2023-01-19T05:18:25;8.10;;;6.47;;
58412;SDS011;44209;52.952;6.790;2023-01-19T05:20:51;7.47;;;6.27;;
58412;SDS011;44209;52.952;6.790;2023-01-19T05:23:17;7.73;;;6.33;;
58412;SDS011;44209;52.952;6.790;2023-01-19T05:25:43;9.70;;;5.77;;
58412;SDS011;44209;52.952;6.790;2023-01-19T05:28:08;7.57;;;6.07;;
58412;SDS011;44209;52.952;6.790;2023-01-19T05:30:34;7.40;;;5.10;;
58412;SDS011;44209;52.952;6.790;2023-01-19T05:33:00;7.63;;;5.87;;
58412;SDS011;44209;52.952;6.790;2023-01-19T05:35:26;7.53;;;5.57;;
58412;SDS011;44209;52.952;6.790;2023-01-19T05:37:52;7.37;;;5.07;;
58412;SDS011;44209;52.952;6.790;2023-01-19T05:40:18;6.57;;;4.93;;
58412;SDS011;44209;52.952;6.790;2023-01-19T05:42:43;6.40;;;4.47;;
58412;SDS011;44209;52.952;6.790;2023-01-19T05:45:09;6.77;;;4.43;;
58412;SDS011;44209;52.952;6.790;2023-01-19T05:47:36;9.97;;;4.50;;
58412;SDS011;44209;52.952;6.790;2023-01-19T05:50:02;7.97;;;4.20;;
58412;SDS011;44209;52.952;6.790;2023-01-19T05:52:28;8.83;;;3.97;;
58412;SDS011;44209;52.952;6.790;2023-01-19T05:54:54;5.47;;;3.40;;
58412;SDS011;44209;52.952;6.790;2023-01-19T05:57:20;7.97;;;3.83;;
58412;SDS011;44209;52.952;6.790;2023-01-19T05:59:46;6.23;;;3.70;;
58412;SDS011;44209;52.952;6.790;2023-01-19T06:02:12;7.67;;;3.20;;
58412;SDS011;44209;52.952;6.790;2023-01-19T06:04:38;5.37;;;2.93;;
58412;SDS011;44209;52.952;6.790;2023-01-19T06:07:04;7.37;;;3.40;;
58412;SDS011;44209;52.952;6.790;2023-01-19T06:09:31;8.97;;;3.23;;
58412;SDS011;44209;52.952;6.790;2023-01-19T06:11:57;6.97;;;3.10;;
58412;SDS011;44209;52.952;6.790;2023-01-19T06:14:24;7.87;;;2.80;;
58412;SDS011;44209;52.952;6.790;2023-01-19T06:16:50;9.37;;;2.90;;
58412;SDS011;44209;52.952;6.790;2023-01-19T06:19:16;8.17;;;2.70;;
58412;SDS011;44209;52.952;6.790;2023-01-19T06:21:42;5.93;;;2.60;;
58412;SDS011;44209;52.952;6.790;2023-01-19T06:24:13;6.38;;;2.50;;
58412;SDS011;44209;52.952;6.790;2023-01-19T06:26:39;6.83;;;2.50;;
58412;SDS011;44209;52.952;6.790;2023-01-19T06:29:08;6.47;;;2.27;;
58412;SDS011;44209;52.952;6.790;2023-01-19T06:31:35;4.90;;;2.00;;
58412;SDS011;44209;52.952;6.790;2023-01-19T06:34:01;7.27;;;2.43;;
58412;SDS011;44209;52.952;6.790;2023-01-19T06:36:28;8.77;;;1.80;;
58412;SDS011;44209;52.952;6.790;2023-01-19T06:38:53;4.93;;;1.70;;
58412;SDS011;44209;52.952;6.790;2023-01-19T06:41:19;2.47;;;1.90;;
58412;SDS011;44209;52.952;6.790;2023-01-19T06:43:45;4.20;;;1.70;;
58412;SDS011;44209;52.952;6.790;2023-01-19T06:46:10;7.43;;;2.03;;
58412;SDS011;44209;52.952;6.790;2023-01-19T06:48:37;5.67;;;2.00;;
58412;SDS011;44209;52.952;6.790;2023-01-19T06:51:03;8.13;;;1.90;;
58412;SDS011;44209;52.952;6.790;2023-01-19T06:53:30;6.30;;;1.70;;
58412;SDS011;44209;52.952;6.790;2023-01-19T06:56:00;3.90;;;1.73;;
58412;SDS011;44209;52.952;6.790;2023-01-19T06:58:26;9.77;;;1.80;;
58412;SDS011;44209;52.952;6.790;2023-01-19T07:00:53;4.93;;;1.67;;
58412;SDS011;44209;52.952;6.790;2023-01-19T07:03:20;8.47;;;1.83;;
58412;SDS011;44209;52.952;6.790;2023-01-19T07:05:53;6.27;;;1.80;;
58412;SDS011;44209;52.952;6.790;2023-01-19T07:08:19;6.80;;;1.70;;
58412;SDS011;44209;52.952;6.790;2023-01-19T07:10:45;5.23;;;1.80;;
58412;SDS011;44209;52.952;6.790;2023-01-19T07:13:10;7.20;;;1.70;;
58412;SDS011;44209;52.952;6.790;2023-01-19T07:15:36;6.03;;;1.60;;
58412;SDS011;44209;52.952;6.790;2023-01-19T07:18:02;7.30;;;1.67;;
58412;SDS011;44209;52.952;6.790;2023-01-19T07:20:32;4.47;;;1.50;;
58412;SDS011;44209;52.952;6.790;2023-01-19T07:22:58;5.87;;;1.40;;
58412;SDS011;44209;52.952;6.790;2023-01-19T07:25:24;6.80;;;1.37;;
58412;SDS011;44209;52.952;6.790;2023-01-19T07:27:51;4.77;;;1.60;;
58412;SDS011;44209;52.952;6.790;2023-01-19T07:30:20;7.43;;;1.67;;
58412;SDS011;44209;52.952;6.790;2023-01-19T07:32:46;6.57;;;1.53;;
58412;SDS011;44209;52.952;6.790;2023-01-19T07:35:12;7.20;;;1.43;;
58412;SDS011;44209;52.952;6.790;2023-01-19T07:37:38;4.97;;;1.50;;
58412;SDS011;44209;52.952;6.790;2023-01-19T07:40:04;7.57;;;1.90;;
58412;SDS011;44209;52.952;6.790;2023-01-19T07:42:30;9.10;;;1.60;;
58412;SDS011;44209;52.952;6.790;2023-01-19T07:44:55;8.57;;;1.80;;
58412;SDS011;44209;52.952;6.790;2023-01-19T07:47:21;12.47;;;1.80;;
58412;SDS011;44209;52.952;6.790;2023-01-19T07:49:47;8.40;;;1.80;;
58412;SDS011;44209;52.952;6.790;2023-01-19T07:52:12;9.83;;;2.23;;
58412;SDS011;44209;52.952;6.790;2023-01-19T07:54:38;11.03;;;1.93;;
58412;SDS011;44209;52.952;6.790;2023-01-19T07:57:04;7.03;;;2.00;;
58412;SDS011;44209;52.952;6.790;2023-01-19T07:59:30;13.63;;;2.23;;
58412;SDS011;44209;52.952;6.790;2023-01-19T08:01:56;8.27;;;1.83;;
58412;SDS011;44209;52.952;6.790;2023-01-19T08:04:26;8.63;;;1.80;;
58412;SDS011;44209;52.952;6.790;2023-01-19T08:06:52;7.73;;;2.67;;
58412;SDS011;44209;52.952;6.790;2023-01-19T08:09:19;8.53;;;2.30;;
58412;SDS011;44209;52.952;6.790;2023-01-19T08:11:45;7.83;;;1.97;;
58412;SDS011;44209;52.952;6.790;2023-01-19T08:14:11;6.87;;;2.03;;
58412;SDS011;44209;52.952;6.790;2023-01-19T08:16:36;12.87;;;2.03;;
58412;SDS011;44209;52.952;6.790;2023-01-19T08:19:02;15.67;;;2.57;;
58412;SDS011;44209;52.952;6.790;2023-01-19T08:21:28;8.30;;;1.93;;
58412;SDS011;44209;52.952;6.790;2023-01-19T08:23:55;15.13;;;2.37;;
58412;SDS011;44209;52.952;6.790;2023-01-19T08:26:32;12.83;;;2.77;;
58412;SDS011;44209;52.952;6.790;2023-01-19T08:29:03;8.77;;;2.00;;
58412;SDS011;44209;52.952;6.790;2023-01-19T08:31:29;10.10;;;2.63;;
58412;SDS011;44209;52.952;6.790;2023-01-19T08:33:55;13.10;;;2.63;;
58412;SDS011;44209;52.952;6.790;2023-01-19T08:36:21;7.73;;;2.27;;
58412;SDS011;44209;52.952;6.790;2023-01-19T08:38:49;14.00;;;2.90;;
58412;SDS011;44209;52.952;6.790;2023-01-19T08:41:14;10.13;;;2.50;;
58412;SDS011;44209;52.952;6.790;2023-01-19T08:43:41;14.83;;;2.77;;
58412;SDS011;44209;52.952;6.790;2023-01-19T08:46:06;8.73;;;2.10;;
58412;SDS011;44209;52.952;6.790;2023-01-19T08:48:32;10.33;;;2.50;;
58412;SDS011;44209;52.952;6.790;2023-01-19T08:50:58;11.33;;;2.10;;
58412;SDS011;44209;52.952;6.790;2023-01-19T08:53:24;14.07;;;2.47;;
58412;SDS011;44209;52.952;6.790;2023-01-19T08:55:54;10.00;;;2.33;;
58412;SDS011;44209;52.952;6.790;2023-01-19T08:58:27;11.03;;;2.40;;
58412;SDS011;44209;52.952;6.790;2023-01-19T09:00:53;13.30;;;2.50;;
58412;SDS011;44209;52.952;6.790;2023-01-19T09:03:19;11.33;;;2.27;;
58412;SDS011;44209;52.952;6.790;2023-01-19T09:05:47;12.97;;;2.57;;
58412;SDS011;44209;52.952;6.790;2023-01-19T09:08:13;9.70;;;2.60;;
58412;SDS011;44209;52.952;6.790;2023-01-19T09:10:43;11.43;;;2.90;;
58412;SDS011;44209;52.952;6.790;2023-01-19T09:13:14;13.60;;;2.53;;
58412;SDS011;44209;52.952;6.790;2023-01-19T09:15:41;12.83;;;3.17;;
58412;SDS011;44209;52.952;6.790;2023-01-19T09:18:09;11.87;;;2.80;;
58412;SDS011;44209;52.952;6.790;2023-01-19T09:20:38;12.27;;;2.67;;
58412;SDS011;44209;52.952;6.790;2023-01-19T09:23:10;12.17;;;2.40;;
58412;SDS011;44209;52.952;6.790;2023-01-19T09:25:37;11.87;;;2.87;;
58412;SDS011;44209;52.952;6.790;2023-01-19T09:28:06;12.17;;;2.90;;
58412;SDS011;44209;52.952;6.790;2023-01-19T09:30:34;17.97;;;2.70;;
58412;SDS011;44209;52.952;6.790;2023-01-19T09:33:03;12.30;;;3.07;;
58412;SDS011;44209;52.952;6.790;2023-01-19T09:35:34;16.00;;;2.97;;
58412;SDS011;44209;52.952;6.790;2023-01-19T09:38:01;11.97;;;2.97;;
58412;SDS011;44209;52.952;6.790;2023-01-19T09:40:26;17.87;;;3.00;;
58412;SDS011;44209;52.952;6.790;2023-01-19T09:45:36;14.40;;;2.87;;
58412;SDS011;44209;52.952;6.790;2023-01-19T09:51:21;15.23;;;3.00;;
58412;SDS011;44209;52.952;6.790;2023-01-19T09:56:29;16.23;;;3.03;;
58412;SDS011;44209;52.952;6.790;2023-01-19T09:58:56;15.07;;;3.33;;
58412;SDS011;44209;52.952;6.790;2023-01-19T10:07:05;18.03;;;3.10;;
58412;SDS011;44209;52.952;6.790;2023-01-19T10:09:59;13.63;;;3.20;;
58412;SDS011;44209;52.952;6.790;2023-01-19T10:12:55;16.00;;;3.30;;
58412;SDS011;44209;52.952;6.790;2023-01-19T10:18:27;10.13;;;2.83;;
58412;SDS011;44209;52.952;6.790;2023-01-19T10:26:07;11.07;;;2.90;;
58412;SDS011;44209;52.952;6.790;2023-01-19T10:28:46;15.95;;;3.25;;
58412;SDS011;44209;52.952;6.790;2023-01-19T10:31:16;16.60;;;3.10;;
58412;SDS011;44209;52.952;6.790;2023-01-19T10:33:45;12.43;;;2.90;;
58412;SDS011;44209;52.952;6.790;2023-01-19T10:36:16;11.30;;;3.00;;
58412;SDS011;44209;52.952;6.790;2023-01-19T10:38:53;13.80;;;2.87;;
58412;SDS011;44209;52.952;6.790;2023-01-19T10:41:20;12.90;;;2.77;;
58412;SDS011;44209;52.952;6.790;2023-01-19T10:44:02;15.53;;;2.77;;
58412;SDS011;44209;52.952;6.790;2023-01-19T10:49:20;10.20;;;2.10;;
58412;SDS011;44209;52.952;6.790;2023-01-19T10:51:50;10.00;;;2.30;;
58412;SDS011;44209;52.952;6.790;2023-01-19T10:54:16;14.20;;;2.33;;
58412;SDS011;44209;52.952;6.790;2023-01-19T10:56:49;12.17;;;2.30;;
58412;SDS011;44209;52.952;6.790;2023-01-19T10:59:28;7.97;;;2.50;;
58412;SDS011;44209;52.952;6.790;2023-01-19T11:04:37;13.00;;;2.60;;
58412;SDS011;44209;52.952;6.790;2023-01-19T11:07:22;12.30;;;2.57;;
58412;SDS011;44209;52.952;6.790;2023-01-19T11:15:45;9.53;;;2.13;;
58412;SDS011;44209;52.952;6.790;2023-01-19T11:20:58;9.33;;;2.63;;
58412;SDS011;44209;52.952;6.790;2023-01-19T11:23:40;10.37;;;2.10;;
58412;SDS011;44209;52.952;6.790;2023-01-19T11:26:24;8.97;;;2.03;;
58412;SDS011;44209;52.952;6.790;2023-01-19T11:28:57;17.13;;;3.00;;
58412;SDS011;44209;52.952;6.790;2023-01-19T11:33:54;11.67;;;2.67;;
58412;SDS011;44209;52.952;6.790;2023-01-19T11:36:35;11.23;;;2.43;;
58412;SDS011;44209;52.952;6.790;2023-01-19T11:39:22;10.43;;;1.90;;
58412;SDS011;44209;52.952;6.790;2023-01-19T11:41:49;7.27;;;1.80;;
58412;SDS011;44209;52.952;6.790;2023-01-19T11:44:26;7.27;;;1.80;;
58412;SDS011;44209;52.952;6.790;2023-01-19T11:47:15;12.87;;;2.00;;
58412;SDS011;44209;52.952;6.790;2023-01-19T11:57:45;8.67;;;1.83;;
58412;SDS011;44209;52.952;6.790;2023-01-19T12:00:27;8.85;;;2.28;;
58412;SDS011;44209;52.952;6.790;2023-01-19T12:03:03;9.07;;;1.80;;
58412;SDS011;44209;52.952;6.790;2023-01-19T12:05:38;10.57;;;2.30;;
58412;SDS011;44209;52.952;6.790;2023-01-19T12:08:10;5.67;;;1.90;;
58412;SDS011;44209;52.952;6.790;2023-01-19T12:10:40;7.80;;;1.70;;
58412;SDS011;44209;52.952;6.790;2023-01-19T12:13:21;11.97;;;2.03;;
58412;SDS011;44209;52.952;6.790;2023-01-19T12:16:31;7.57;;;1.67;;
58412;SDS011;44209;52.952;6.790;2023-01-19T12:18:44;12.43;;;1.90;;
58412;SDS011;44209;52.952;6.790;2023-01-19T12:21:15;9.52;;;2.10;;
58412;SDS011;44209;52.952;6.790;2023-01-19T12:29:04;9.60;;;1.70;;
58412;SDS011;44209;52.952;6.790;2023-01-19T12:31:37;5.17;;;1.43;;
58412;SDS011;44209;52.952;6.790;2023-01-19T12:34:26;13.20;;;2.70;;
58412;SDS011;44209;52.952;6.790;2023-01-19T12:37:02;6.33;;;1.60;;
58412;SDS011;44209;52.952;6.790;2023-01-19T12:39:30;8.20;;;1.60;;
58412;SDS011;44209;52.952;6.790;2023-01-19T12:45:13;13.17;;;2.13;;
58412;SDS011;44209;52.952;6.790;2023-01-19T12:47:38;7.73;;;1.53;;
58412;SDS011;44209;52.952;6.790;2023-01-19T12:50:15;8.47;;;1.40;;
58412;SDS011;44209;52.952;6.790;2023-01-19T12:52:47;9.50;;;1.57;;
58412;SDS011;44209;52.952;6.790;2023-01-19T12:55:18;7.77;;;1.60;;
58412;SDS011;44209;52.952;6.790;2023-01-19T13:00:27;6.53;;;1.27;;
58412;SDS011;44209;52.952;6.790;2023-01-19T13:02:57;6.70;;;1.40;;
58412;SDS011;44209;52.952;6.790;2023-01-19T13:05:50;9.03;;;1.20;;
58412;SDS011;44209;52.952;6.790;2023-01-19T13:08:28;7.33;;;2.67;;
58412;SDS011;44209;52.952;6.790;2023-01-19T13:11:15;4.43;;;1.27;;
58412;SDS011;44209;52.952;6.790;2023-01-19T13:13:43;7.27;;;1.63;;
58412;SDS011;44209;52.952;6.790;2023-01-19T13:21:34;7.37;;;1.90;;
58412;SDS011;44209;52.952;6.790;2023-01-19T13:26:32;7.60;;;1.83;;
58412;SDS011;44209;52.952;6.790;2023-01-19T13:29:06;8.87;;;1.60;;
58412;SDS011;44209;52.952;6.790;2023-01-19T13:31:39;5.17;;;1.80;;
58412;SDS011;44209;52.952;6.790;2023-01-19T13:34:10;9.30;;;1.53;;
58412;SDS011;44209;52.952;6.790;2023-01-19T13:36:40;7.50;;;1.65;;
58412;SDS011;44209;52.952;6.790;2023-01-19T13:39:13;8.07;;;1.93;;
58412;SDS011;44209;52.952;6.790;2023-01-19T13:41:40;3.70;;;1.13;;
58412;SDS011;44209;52.952;6.790;2023-01-19T13:44:08;6.90;;;1.20;;
58412;SDS011;44209;52.952;6.790;2023-01-19T13:46:41;3.07;;;1.47;;
58412;SDS011;44209;52.952;6.790;2023-01-19T13:52:05;7.50;;;1.50;;
58412;SDS011;44209;52.952;6.790;2023-01-19T13:54:51;4.90;;;1.20;;
58412;SDS011;44209;52.952;6.790;2023-01-19T14:02:36;6.40;;;1.20;;
58412;SDS011;44209;52.952;6.790;2023-01-19T14:08:03;7.70;;;1.63;;
58412;SDS011;44209;52.952;6.790;2023-01-19T14:10:31;7.73;;;1.40;;
58412;SDS011;44209;52.952;6.790;2023-01-19T14:13:02;6.13;;;1.10;;
58412;SDS011;44209;52.952;6.790;2023-01-19T14:15:59;8.13;;;1.40;;
58412;SDS011;44209;52.952;6.790;2023-01-19T14:18:33;5.27;;;1.23;;
58412;SDS011;44209;52.952;6.790;2023-01-19T14:21:10;6.07;;;1.50;;
58412;SDS011;44209;52.952;6.790;2023-01-19T14:29:15;4.93;;;1.50;;
58412;SDS011;44209;52.952;6.790;2023-01-19T14:31:45;8.40;;;1.73;;
58412;SDS011;44209;52.952;6.790;2023-01-19T14:37:00;4.83;;;1.23;;
58412;SDS011;44209;52.952;6.790;2023-01-19T14:39:28;7.10;;;1.47;;
58412;SDS011;44209;52.952;6.790;2023-01-19T14:41:57;4.20;;;1.10;;
58412;SDS011;44209;52.952;6.790;2023-01-19T14:44:28;3.67;;;0.97;;
58412;SDS011;44209;52.952;6.790;2023-01-19T14:46:59;6.63;;;1.40;;
58412;SDS011;44209;52.952;6.790;2023-01-19T14:49:28;3.53;;;1.33;;
58412;SDS011;44209;52.952;6.790;2023-01-19T14:52:03;5.13;;;1.27;;
58412;SDS011;44209;52.952;6.790;2023-01-19T14:54:38;4.97;;;1.10;;
58412;SDS011;44209;52.952;6.790;2023-01-19T14:57:10;8.50;;;1.00;;
58412;SDS011;44209;52.952;6.790;2023-01-19T14:59:37;2.70;;;1.00;;
58412;SDS011;44209;52.952;6.790;2023-01-19T15:02:03;5.30;;;1.53;;
58412;SDS011;44209;52.952;6.790;2023-01-19T15:04:29;3.37;;;0.90;;
58412;SDS011;44209;52.952;6.790;2023-01-19T15:06:55;6.13;;;1.40;;
58412;SDS011;44209;52.952;6.790;2023-01-19T15:09:21;3.90;;;1.30;;
58412;SDS011;44209;52.952;6.790;2023-01-19T15:11:47;3.37;;;1.00;;
58412;SDS011;44209;52.952;6.790;2023-01-19T15:14:14;5.13;;;1.47;;
58412;SDS011;44209;52.952;6.790;2023-01-19T15:16:43;4.07;;;1.30;;
58412;SDS011;44209;52.952;6.790;2023-01-19T15:19:13;5.43;;;1.17;;
58412;SDS011;44209;52.952;6.790;2023-01-19T15:21:40;8.32;;;1.50;;
58412;SDS011;44209;52.952;6.790;2023-01-19T15:24:07;5.27;;;1.10;;
58412;SDS011;44209;52.952;6.790;2023-01-19T15:26:35;4.80;;;1.30;;
58412;SDS011;44209;52.952;6.790;2023-01-19T15:29:08;2.80;;;1.30;;
58412;SDS011;44209;52.952;6.790;2023-01-19T15:31:38;7.03;;;1.27;;
58412;SDS011;44209;52.952;6.790;2023-01-19T15:34:04;4.73;;;1.13;;
58412;SDS011;44209;52.952;6.790;2023-01-19T15:36:29;4.87;;;1.20;;
58412;SDS011;44209;52.952;6.790;2023-01-19T15:38:55;3.10;;;1.10;;
58412;SDS011;44209;52.952;6.790;2023-01-19T15:41:22;7.37;;;1.33;;
58412;SDS011;44209;52.952;6.790;2023-01-19T15:43:50;4.53;;;1.30;;
58412;SDS011;44209;52.952;6.790;2023-01-19T15:46:19;3.63;;;1.40;;
58412;SDS011;44209;52.952;6.790;2023-01-19T15:48:46;5.83;;;1.40;;
58412;SDS011;44209;52.952;6.790;2023-01-19T15:51:13;3.10;;;1.10;;
58412;SDS011;44209;52.952;6.790;2023-01-19T15:53:40;5.47;;;1.30;;
58412;SDS011;44209;52.952;6.790;2023-01-19T15:56:16;6.20;;;1.20;;
58412;SDS011;44209;52.952;6.790;2023-01-19T15:58:49;3.10;;;1.00;;
58412;SDS011;44209;52.952;6.790;2023-01-19T16:01:16;2.37;;;1.07;;
58412;SDS011;44209;52.952;6.790;2023-01-19T16:03:44;4.17;;;1.10;;
58412;SDS011;44209;52.952;6.790;2023-01-19T16:06:11;5.00;;;1.40;;
58412;SDS011;44209;52.952;6.790;2023-01-19T16:08:37;3.87;;;1.10;;
58412;SDS011;44209;52.952;6.790;2023-01-19T16:11:11;2.40;;;1.20;;
58412;SDS011;44209;52.952;6.790;2023-01-19T16:13:38;3.80;;;1.30;;
58412;SDS011;44209;52.952;6.790;2023-01-19T16:16:06;7.23;;;1.33;;
58412;SDS011;44209;52.952;6.790;2023-01-19T16:18:36;7.72;;;1.70;;
58412;SDS011;44209;52.952;6.790;2023-01-19T16:21:02;5.27;;;1.63;;
58412;SDS011;44209;52.952;6.790;2023-01-19T16:23:28;5.47;;;1.37;;
58412;SDS011;44209;52.952;6.790;2023-01-19T16:25:54;7.13;;;1.40;;
58412;SDS011;44209;52.952;6.790;2023-01-19T16:28:29;8.60;;;1.57;;
58412;SDS011;44209;52.952;6.790;2023-01-19T16:30:55;5.10;;;1.47;;
58412;SDS011;44209;52.952;6.790;2023-01-19T16:33:21;3.40;;;1.20;;
58412;SDS011;44209;52.952;6.790;2023-01-19T16:35:47;4.93;;;1.40;;
58412;SDS011;44209;52.952;6.790;2023-01-19T16:38:13;4.03;;;1.30;;
58412;SDS011;44209;52.952;6.790;2023-01-19T16:40:39;5.10;;;1.40;;
58412;SDS011;44209;52.952;6.790;2023-01-19T16:43:07;6.27;;;1.53;;
58412;SDS011;44209;52.952;6.790;2023-01-19T16:45:32;3.87;;;1.10;;